Pamlico — WX6900 — position and weather

sailwx.info

Track history (hours):
 
Tides and Currents Weather Stations Pressure Air Temp Water Temp Dewpoint Dewpoint Depression Visibility Wind Speed Wind Dir Waves Ship Positions

Pamlico

Owner: PCS Phosphate, AURORA, NC. More information available from US FCC via Universal Licensing System and Coast Guard Vessel Documentation Center.

Last reported at 2017-Oct-18 04:24 UTC. Time now 2017-Oct-19 05:30 UTC.
Position N 34°58' W 076°41'.

Length 30 m; draft 2 m.

Type: Tug. MMSI: 367361220.

Date/timePositionNaut miles runAvg speedWind from/ knotsBaromVisibWave heightAir tempDewpointWater temp
2017-Oct-18 04:24N 34°58' W 076°41'3 6.7
2017-Oct-18 04:00N 34°55' W 076°39'3 6.3
2017-Oct-18 03:30N 34°53' W 076°41'3 6.7
2017-Oct-18 03:00N 34°49' W 076°41'3 6.9
2017-Oct-18 02:30N 34°46' W 076°41'3 5.4
2017-Oct-18 02:01N 34°43' W 076°42'0 0.2
2017-Oct-18 01:30N 34°43' W 076°42'0 0.1
2017-Oct-18 01:01N 34°43' W 076°42'2 4.2
2017-Oct-18 00:30N 34°45' W 076°41'3 5.9
2017-Oct-18 00:00N 34°48' W 076°41'2 4.4
2017-Oct-17 23:30N 34°50' W 076°41'2 4.8
2017-Oct-17 23:00N 34°53' W 076°41'3 4.9
2017-Oct-17 22:29N 34°55' W 076°40'3 5.9
2017-Oct-17 22:00N 34°58' W 076°41'1 0.0
2017-Oct-17 02:37N 34°58' W 076°41'2 6.9
2017-Oct-17 02:23N 34°57' W 076°40'2 5.9
2017-Oct-17 02:00N 34°55' W 076°40'3 5.5
2017-Oct-17 01:30N 34°53' W 076°42'3 5.8
2017-Oct-17 01:00N 34°50' W 076°41'3 6.6
2017-Oct-17 00:31N 34°46' W 076°41'3 5.9
2017-Oct-17 00:01N 34°43' W 076°42'0 0.2
2017-Oct-16 23:30N 34°43' W 076°42'0 0.1
2017-Oct-16 23:01N 34°43' W 076°42'0 0.8
2017-Oct-16 22:30N 34°44' W 076°42'3 5.3
2017-Oct-16 22:01N 34°46' W 076°41'3 6.0
2017-Oct-16 21:30N 34°49' W 076°41'3 6.0
2017-Oct-16 21:00N 34°52' W 076°41'3 5.9
2017-Oct-16 20:28N 34°55' W 076°40'3 6.2
2017-Oct-16 20:00N 34°58' W 076°41'6 0.3
2017-Oct-16 02:38N 35°02' W 076°36'3 7.8
2017-Oct-16 02:18N 35°01' W 076°39'3 7.7
2017-Oct-16 01:55N 34°59' W 076°41'3 7.0
2017-Oct-16 01:30N 34°56' W 076°39'3 6.7
2017-Oct-16 01:00N 34°53' W 076°41'4 7.6
2017-Oct-16 00:30N 34°50' W 076°41'4 7.3
2017-Oct-16 00:00N 34°46' W 076°41'3 5.3
2017-Oct-15 23:31N 34°43' W 076°42'0 0.2
2017-Oct-15 23:00N 34°43' W 076°42'0 0.6
2017-Oct-15 22:31N 34°44' W 076°42'3 5.6
2017-Oct-15 22:00N 34°46' W 076°41'3 5.1
2017-Oct-15 21:30N 34°49' W 076°41'2 4.1
2017-Oct-15 21:00N 34°51' W 076°41'2 4.3
2017-Oct-15 20:30N 34°53' W 076°41'2 4.5
2017-Oct-15 20:00N 34°55' W 076°40'3 5.6
2017-Oct-15 19:28N 34°58' W 076°41'14 6.1
2017-Oct-15 17:08N 35°09' W 076°31'13 0.8
2017-Oct-15 01:35N 34°59' W 076°41'1 6.8
2017-Oct-15 01:22N 34°58' W 076°41'3 7.1
2017-Oct-15 00:59N 34°56' W 076°39'3 7.0
2017-Oct-15 00:30N 34°53' W 076°42'4 7.6
2017-Oct-15 00:00N 34°49' W 076°41'4 7.2
2017-Oct-14 23:30N 34°45' W 076°40'2 4.4
2017-Oct-14 23:00N 34°43' W 076°42'0 0.1
2017-Oct-14 22:31N 34°43' W 076°42'0 0.6
2017-Oct-14 22:00N 34°44' W 076°42'3 5.9
2017-Oct-14 21:30N 34°47' W 076°41'3 5.0
2017-Oct-14 21:00N 34°49' W 076°41'2 4.2
2017-Oct-14 20:31N 34°51' W 076°41'2 4.3
2017-Oct-14 20:01N 34°53' W 076°41'2 4.6
2017-Oct-14 19:30N 34°55' W 076°40'3 5.6
2017-Oct-14 18:59N 34°58' W 076°41'1 0.0
2017-Oct-13 21:55N 34°57' W 076°40'3 6.8
2017-Oct-13 21:30N 34°54' W 076°40'4 7.4
2017-Oct-13 21:01N 34°51' W 076°41'4 8.3
2017-Oct-13 20:31N 34°47' W 076°41'3 6.4
2017-Oct-13 20:01N 34°43' W 076°42'0 0.1
2017-Oct-13 19:31N 34°43' W 076°42'0 0.0
2017-Oct-13 19:01N 34°43' W 076°42'0 0.1
2017-Oct-13 18:31N 34°43' W 076°42'0 0.1
2017-Oct-13 18:00N 34°43' W 076°42'1 2.4
2017-Oct-13 17:31N 34°44' W 076°41'3 5.3
2017-Oct-13 17:00N 34°47' W 076°41'3 6.4
2017-Oct-13 16:30N 34°50' W 076°41'3 6.5
2017-Oct-13 16:01N 34°53' W 076°41'3 6.3
2017-Oct-13 15:30N 34°56' W 076°39'3 0.2
2017-Oct-13 03:27N 34°58' W 076°41'3 6.8
2017-Oct-13 03:00N 34°56' W 076°39'3 5.7
2017-Oct-13 02:30N 34°53' W 076°41'2 4.8
2017-Oct-13 02:01N 34°51' W 076°41'2 4.6
2017-Oct-13 01:30N 34°49' W 076°41'3 5.4
2017-Oct-13 01:01N 34°46' W 076°41'2 3.6
2017-Oct-13 00:30N 34°44' W 076°41'1 2.4
2017-Oct-13 00:01N 34°43' W 076°42'0 0.2
2017-Oct-12 23:30N 34°43' W 076°42'0 0.0
2017-Oct-12 23:01N 34°43' W 076°42'1 2.3
2017-Oct-12 22:31N 34°44' W 076°41'3 6.1
2017-Oct-12 22:01N 34°47' W 076°41'3 5.1
2017-Oct-12 21:31N 34°50' W 076°41'2 4.8
2017-Oct-12 21:01N 34°52' W 076°41'2 4.1
2017-Oct-12 20:31N 34°54' W 076°41'3 5.0
2017-Oct-12 20:00N 34°57' W 076°40'3 0.1
2017-Oct-11 21:10N 34°58' W 076°42'2 6.3
2017-Oct-11 20:53N 34°57' W 076°40'2 5.9
2017-Oct-11 20:30N 34°55' W 076°40'3 6.2
2017-Oct-11 20:00N 34°52' W 076°42'4 7.1
2017-Oct-11 19:30N 34°49' W 076°41'3 6.4
2017-Oct-11 19:00N 34°45' W 076°40'2 4.8
2017-Oct-11 18:30N 34°43' W 076°42'0 0.1
2017-Oct-11 18:00N 34°43' W 076°42'0 0.0
2017-Oct-11 17:30N 34°43' W 076°42'0 0.0
2017-Oct-11 17:01N 34°43' W 076°42'16 0.4
2017-Oct-09 22:14N 34°59' W 076°41'1 6.5
2017-Oct-09 22:00N 34°58' W 076°41'3 6.3
2017-Oct-09 21:31N 34°54' W 076°40'3 6.1
2017-Oct-09 21:01N 34°52' W 076°41'4 7.0
2017-Oct-09 20:30N 34°48' W 076°41'3 6.8
2017-Oct-09 20:00N 34°45' W 076°41'2 3.4
2017-Oct-09 19:31N 34°43' W 076°42'0 0.1
2017-Oct-09 19:00N 34°43' W 076°42'0 0.2
2017-Oct-09 18:30N 34°43' W 076°42'0 0.0
2017-Oct-09 18:00N 34°43' W 076°42'0 0.0
2017-Oct-09 17:31N 34°43' W 076°42'0 0.0
2017-Oct-09 17:01N 34°43' W 076°42'0 0.0
2017-Oct-09 16:31N 34°43' W 076°42'0 0.0
2017-Oct-09 16:01N 34°43' W 076°42'0 0.0
2017-Oct-09 15:31N 34°43' W 076°42'0 0.0
2017-Oct-09 15:00N 34°43' W 076°42'0 0.0
2017-Oct-09 14:30N 34°43' W 076°42'0 0.0
2017-Oct-09 14:00N 34°43' W 076°42'0 0.0
2017-Oct-09 13:30N 34°43' W 076°42'0 0.0
2017-Oct-09 13:01N 34°43' W 076°42'0 0.0
2017-Oct-09 12:31N 34°43' W 076°42'2 4.1
2017-Oct-09 12:01N 34°45' W 076°41'3 5.3
2017-Oct-09 11:31N 34°48' W 076°41'3 6.4
2017-Oct-09 11:01N 34°51' W 076°41'3 6.1
2017-Oct-09 10:30N 34°54' W 076°41'3 5.6
2017-Oct-09 10:01N 34°57' W 076°40'2 0.1
2017-Oct-08 21:14N 34°58' W 076°41'2 7.4
2017-Oct-08 21:00N 34°57' W 076°40'3 5.9
2017-Oct-08 20:30N 34°54' W 076°41'3 6.1
2017-Oct-08 20:00N 34°51' W 076°41'3 6.6
2017-Oct-08 19:31N 34°48' W 076°41'3 6.6
2017-Oct-08 19:01N 34°44' W 076°41'1 2.5
2017-Oct-08 18:31N 34°43' W 076°42'0 0.1
2017-Oct-08 18:01N 34°43' W 076°42'0 0.0
2017-Oct-08 17:31N 34°43' W 076°42'0 0.2
2017-Oct-08 17:01N 34°43' W 076°42'0 0.0
2017-Oct-08 16:31N 34°43' W 076°42'0 0.0
2017-Oct-08 16:01N 34°43' W 076°42'0 0.0
2017-Oct-08 15:31N 34°43' W 076°42'0 0.0
2017-Oct-08 15:01N 34°43' W 076°42'0 0.0
2017-Oct-08 14:30N 34°43' W 076°42'0 0.0
2017-Oct-08 14:00N 34°43' W 076°42'0 0.0
2017-Oct-08 13:31N 34°43' W 076°42'0 0.0
2017-Oct-08 13:01N 34°43' W 076°42'0 0.0
2017-Oct-08 12:31N 34°43' W 076°42'0 0.0
2017-Oct-08 12:01N 34°43' W 076°42'0 0.0
2017-Oct-08 11:31N 34°43' W 076°42'0 0.0
2017-Oct-08 11:01N 34°43' W 076°42'0 0.0
2017-Oct-08 10:31N 34°43' W 076°42'0 0.0
2017-Oct-08 10:01N 34°43' W 076°42'0 0.0
2017-Oct-08 09:31N 34°43' W 076°42'0 0.0
2017-Oct-08 09:01N 34°43' W 076°42'0 0.0
2017-Oct-08 08:31N 34°43' W 076°42'0 0.0
2017-Oct-08 08:01N 34°43' W 076°42'0 0.0
2017-Oct-08 07:31N 34°43' W 076°42'0 0.0
2017-Oct-08 07:01N 34°43' W 076°42'0 0.0
2017-Oct-08 06:30N 34°43' W 076°42'0 0.0
2017-Oct-08 06:01N 34°43' W 076°42'0 0.0
2017-Oct-08 05:30N 34°43' W 076°42'1 2.9
2017-Oct-08 05:01N 34°45' W 076°41'3 5.5
2017-Oct-08 04:31N 34°47' W 076°41'  
Track history (hours):
 
Tides and Currents Weather Stations Pressure Air Temp Water Temp Dewpoint Dewpoint Depression Visibility Wind Speed Wind Dir Waves Ship Positions

Pamlico

Owner: PCS Phosphate, AURORA, NC. More information available from US FCC via Universal Licensing System and Coast Guard Vessel Documentation Center.

Last reported at 2017-Oct-18 04:24 UTC. Time now 2017-Oct-19 05:30 UTC.
Position N 34°58' W 076°41'.

Length 30 m; draft 2 m.

Type: Tug. MMSI: 367361220.

Date/timePositionNaut miles runAvg speedWind from/ knotsBaromVisibWave heightAir tempDewpointWater temp
2017-Oct-18 04:24N 34°58' W 076°41'3 6.7
2017-Oct-18 04:00N 34°55' W 076°39'3 6.3
2017-Oct-18 03:30N 34°53' W 076°41'3 6.7
2017-Oct-18 03:00N 34°49' W 076°41'3 6.9
2017-Oct-18 02:30N 34°46' W 076°41'3 5.4
2017-Oct-18 02:01N 34°43' W 076°42'0 0.2
2017-Oct-18 01:30N 34°43' W 076°42'0 0.1
2017-Oct-18 01:01N 34°43' W 076°42'2 4.2
2017-Oct-18 00:30N 34°45' W 076°41'3 5.9
2017-Oct-18 00:00N 34°48' W 076°41'2 4.4
2017-Oct-17 23:30N 34°50' W 076°41'2 4.8
2017-Oct-17 23:00N 34°53' W 076°41'3 4.9
2017-Oct-17 22:29N 34°55' W 076°40'3 5.9
2017-Oct-17 22:00N 34°58' W 076°41'1 0.0
2017-Oct-17 02:37N 34°58' W 076°41'2 6.9
2017-Oct-17 02:23N 34°57' W 076°40'2 5.9
2017-Oct-17 02:00N 34°55' W 076°40'3 5.5
2017-Oct-17 01:30N 34°53' W 076°42'3 5.8
2017-Oct-17 01:00N 34°50' W 076°41'3 6.6
2017-Oct-17 00:31N 34°46' W 076°41'3 5.9
2017-Oct-17 00:01N 34°43' W 076°42'0 0.2
2017-Oct-16 23:30N 34°43' W 076°42'0 0.1
2017-Oct-16 23:01N 34°43' W 076°42'0 0.8
2017-Oct-16 22:30N 34°44' W 076°42'3 5.3
2017-Oct-16 22:01N 34°46' W 076°41'3 6.0
2017-Oct-16 21:30N 34°49' W 076°41'3 6.0
2017-Oct-16 21:00N 34°52' W 076°41'3 5.9
2017-Oct-16 20:28N 34°55' W 076°40'3 6.2
2017-Oct-16 20:00N 34°58' W 076°41'6 0.3
2017-Oct-16 02:38N 35°02' W 076°36'3 7.8
2017-Oct-16 02:18N 35°01' W 076°39'3 7.7
2017-Oct-16 01:55N 34°59' W 076°41'3 7.0
2017-Oct-16 01:30N 34°56' W 076°39'3 6.7
2017-Oct-16 01:00N 34°53' W 076°41'4 7.6
2017-Oct-16 00:30N 34°50' W 076°41'4 7.3
2017-Oct-16 00:00N 34°46' W 076°41'3 5.3
2017-Oct-15 23:31N 34°43' W 076°42'0 0.2
2017-Oct-15 23:00N 34°43' W 076°42'0 0.6
2017-Oct-15 22:31N 34°44' W 076°42'3 5.6
2017-Oct-15 22:00N 34°46' W 076°41'3 5.1
2017-Oct-15 21:30N 34°49' W 076°41'2 4.1
2017-Oct-15 21:00N 34°51' W 076°41'2 4.3
2017-Oct-15 20:30N 34°53' W 076°41'2 4.5
2017-Oct-15 20:00N 34°55' W 076°40'3 5.6
2017-Oct-15 19:28N 34°58' W 076°41'14 6.1
2017-Oct-15 17:08N 35°09' W 076°31'13 0.8
2017-Oct-15 01:35N 34°59' W 076°41'1 6.8
2017-Oct-15 01:22N 34°58' W 076°41'3 7.1
2017-Oct-15 00:59N 34°56' W 076°39'3 7.0
2017-Oct-15 00:30N 34°53' W 076°42'4 7.6
2017-Oct-15 00:00N 34°49' W 076°41'4 7.2
2017-Oct-14 23:30N 34°45' W 076°40'2 4.4
2017-Oct-14 23:00N 34°43' W 076°42'0 0.1
2017-Oct-14 22:31N 34°43' W 076°42'0 0.6
2017-Oct-14 22:00N 34°44' W 076°42'3 5.9
2017-Oct-14 21:30N 34°47' W 076°41'3 5.0
2017-Oct-14 21:00N 34°49' W 076°41'2 4.2
2017-Oct-14 20:31N 34°51' W 076°41'2 4.3
2017-Oct-14 20:01N 34°53' W 076°41'2 4.6
2017-Oct-14 19:30N 34°55' W 076°40'3 5.6
2017-Oct-14 18:59N 34°58' W 076°41'1 0.0
2017-Oct-13 21:55N 34°57' W 076°40'3 6.8
2017-Oct-13 21:30N 34°54' W 076°40'4 7.4
2017-Oct-13 21:01N 34°51' W 076°41'4 8.3
2017-Oct-13 20:31N 34°47' W 076°41'3 6.4
2017-Oct-13 20:01N 34°43' W 076°42'0 0.1
2017-Oct-13 19:31N 34°43' W 076°42'0 0.0
2017-Oct-13 19:01N 34°43' W 076°42'0 0.1
2017-Oct-13 18:31N 34°43' W 076°42'0 0.1
2017-Oct-13 18:00N 34°43' W 076°42'1 2.4
2017-Oct-13 17:31N 34°44' W 076°41'3 5.3
2017-Oct-13 17:00N 34°47' W 076°41'3 6.4
2017-Oct-13 16:30N 34°50' W 076°41'3 6.5
2017-Oct-13 16:01N 34°53' W 076°41'3 6.3
2017-Oct-13 15:30N 34°56' W 076°39'3 0.2
2017-Oct-13 03:27N 34°58' W 076°41'3 6.8
2017-Oct-13 03:00N 34°56' W 076°39'3 5.7
2017-Oct-13 02:30N 34°53' W 076°41'2 4.8
2017-Oct-13 02:01N 34°51' W 076°41'2 4.6
2017-Oct-13 01:30N 34°49' W 076°41'3 5.4
2017-Oct-13 01:01N 34°46' W 076°41'2 3.6
2017-Oct-13 00:30N 34°44' W 076°41'1 2.4
2017-Oct-13 00:01N 34°43' W 076°42'0 0.2
2017-Oct-12 23:30N 34°43' W 076°42'0 0.0
2017-Oct-12 23:01N 34°43' W 076°42'1 2.3
2017-Oct-12 22:31N 34°44' W 076°41'3 6.1
2017-Oct-12 22:01N 34°47' W 076°41'3 5.1
2017-Oct-12 21:31N 34°50' W 076°41'2 4.8
2017-Oct-12 21:01N 34°52' W 076°41'2 4.1
2017-Oct-12 20:31N 34°54' W 076°41'3 5.0
2017-Oct-12 20:00N 34°57' W 076°40'3 0.1
2017-Oct-11 21:10N 34°58' W 076°42'2 6.3
2017-Oct-11 20:53N 34°57' W 076°40'2 5.9
2017-Oct-11 20:30N 34°55' W 076°40'3 6.2
2017-Oct-11 20:00N 34°52' W 076°42'4 7.1
2017-Oct-11 19:30N 34°49' W 076°41'3 6.4
2017-Oct-11 19:00N 34°45' W 076°40'2 4.8
2017-Oct-11 18:30N 34°43' W 076°42'0 0.1
2017-Oct-11 18:00N 34°43' W 076°42'0 0.0
2017-Oct-11 17:30N 34°43' W 076°42'0 0.0
2017-Oct-11 17:01N 34°43' W 076°42'16 0.4
2017-Oct-09 22:14N 34°59' W 076°41'1 6.5
2017-Oct-09 22:00N 34°58' W 076°41'3 6.3
2017-Oct-09 21:31N 34°54' W 076°40'3 6.1
2017-Oct-09 21:01N 34°52' W 076°41'4 7.0
2017-Oct-09 20:30N 34°48' W 076°41'3 6.8
2017-Oct-09 20:00N 34°45' W 076°41'2 3.4
2017-Oct-09 19:31N 34°43' W 076°42'0 0.1
2017-Oct-09 19:00N 34°43' W 076°42'0 0.2
2017-Oct-09 18:30N 34°43' W 076°42'0 0.0
2017-Oct-09 18:00N 34°43' W 076°42'0 0.0
2017-Oct-09 17:31N 34°43' W 076°42'0 0.0
2017-Oct-09 17:01N 34°43' W 076°42'0 0.0
2017-Oct-09 16:31N 34°43' W 076°42'0 0.0
2017-Oct-09 16:01N 34°43' W 076°42'0 0.0
2017-Oct-09 15:31N 34°43' W 076°42'0 0.0
2017-Oct-09 15:00N 34°43' W 076°42'0 0.0
2017-Oct-09 14:30N 34°43' W 076°42'0 0.0
2017-Oct-09 14:00N 34°43' W 076°42'0 0.0
2017-Oct-09 13:30N 34°43' W 076°42'0 0.0
2017-Oct-09 13:01N 34°43' W 076°42'0 0.0
2017-Oct-09 12:31N 34°43' W 076°42'2 4.1
2017-Oct-09 12:01N 34°45' W 076°41'3 5.3
2017-Oct-09 11:31N 34°48' W 076°41'3 6.4
2017-Oct-09 11:01N 34°51' W 076°41'3 6.1
2017-Oct-09 10:30N 34°54' W 076°41'3 5.6
2017-Oct-09 10:01N 34°57' W 076°40'2 0.1
2017-Oct-08 21:14N 34°58' W 076°41'2 7.4
2017-Oct-08 21:00N 34°57' W 076°40'3 5.9
2017-Oct-08 20:30N 34°54' W 076°41'3 6.1
2017-Oct-08 20:00N 34°51' W 076°41'3 6.6
2017-Oct-08 19:31N 34°48' W 076°41'3 6.6
2017-Oct-08 19:01N 34°44' W 076°41'1 2.5
2017-Oct-08 18:31N 34°43' W 076°42'0 0.1
2017-Oct-08 18:01N 34°43' W 076°42'0 0.0
2017-Oct-08 17:31N 34°43' W 076°42'0 0.2
2017-Oct-08 17:01N 34°43' W 076°42'0 0.0
2017-Oct-08 16:31N 34°43' W 076°42'0 0.0
2017-Oct-08 16:01N 34°43' W 076°42'0 0.0
2017-Oct-08 15:31N 34°43' W 076°42'0 0.0
2017-Oct-08 15:01N 34°43' W 076°42'0 0.0
2017-Oct-08 14:30N 34°43' W 076°42'0 0.0
2017-Oct-08 14:00N 34°43' W 076°42'0 0.0
2017-Oct-08 13:31N 34°43' W 076°42'0 0.0
2017-Oct-08 13:01N 34°43' W 076°42'0 0.0
2017-Oct-08 12:31N 34°43' W 076°42'0 0.0
2017-Oct-08 12:01N 34°43' W 076°42'0 0.0
2017-Oct-08 11:31N 34°43' W 076°42'0 0.0
2017-Oct-08 11:01N 34°43' W 076°42'0 0.0
2017-Oct-08 10:31N 34°43' W 076°42'0 0.0
2017-Oct-08 10:01N 34°43' W 076°42'0 0.0
2017-Oct-08 09:31N 34°43' W 076°42'0 0.0
2017-Oct-08 09:01N 34°43' W 076°42'0 0.0
2017-Oct-08 08:31N 34°43' W 076°42'0 0.0
2017-Oct-08 08:01N 34°43' W 076°42'0 0.0
2017-Oct-08 07:31N 34°43' W 076°42'0 0.0
2017-Oct-08 07:01N 34°43' W 076°42'0 0.0
2017-Oct-08 06:30N 34°43' W 076°42'0 0.0
2017-Oct-08 06:01N 34°43' W 076°42'0 0.0
2017-Oct-08 05:30N 34°43' W 076°42'1 2.9
2017-Oct-08 05:01N 34°45' W 076°41'3 5.5
2017-Oct-08 04:31N 34°47' W 076°41'  

Dump ship's entire track history